Time;durP1;ratioP1;P1;durP2;ratioP2;P2;SDS_P1;SDS_P2;PMS_P1;PMS_P2;Temp;Humidity;BMP_temperature;BMP_pressure;BME280_temperature;BME280_humidity;BME280_pressure;Samples;Min_cycle;Max_cycle;Signal;HPM_P1;HPM_P2
2023/12/06 00:01:10;;;;;;;117.00;54.30;;;;;;;-4.02;86.87;100681.70;108792;280;38860;-67
2023/12/06 00:03:48;;;;;;;125.40;53.50;;;;;;;-4.06;86.87;100676.84;108651;281;154415;-70
2023/12/06 00:06:26;;;;;;;91.10;44.10;;;;;;;-4.05;86.89;100682.48;108802;280;38246;-70
2023/12/06 00:09:03;;;;;;;105.20;49.00;;;;;;;-4.06;86.88;100681.62;108689;280;156733;-68
2023/12/06 00:11:37;;;;;;;91.40;46.00;;;;;;;-4.06;87.02;100680.73;108767;282;38217;-69
2023/12/06 00:14:11;;;;;;;165.10;66.60;;;;;;;-4.06;87.01;100686.70;108814;282;39421;-72
2023/12/06 00:16:45;;;;;;;102.80;46.90;;;;;;;-4.05;87.24;100697.13;108633;281;154085;-71
2023/12/06 00:19:23;;;;;;;97.00;44.30;;;;;;;-4.08;87.20;100691.94;108809;282;38620;-68
2023/12/06 00:22:05;;;;;;;127.20;55.50;;;;;;;-4.03;87.23;100695.33;108630;281;154942;-68
2023/12/06 00:24:43;;;;;;;83.30;41.70;;;;;;;-3.97;87.32;100693.27;108788;281;38259;-70
2023/12/06 00:27:17;;;;;;;107.90;49.10;;;;;;;-3.98;87.09;100690.31;108605;281;154116;-73
2023/12/06 00:29:53;;;;;;;102.50;48.60;;;;;;;-3.97;87.07;100691.03;108779;281;38443;-70
2023/12/06 00:32:31;;;;;;;103.60;46.30;;;;;;;-3.98;87.27;100690.00;108808;282;38506;-68
2023/12/06 00:35:11;;;;;;;104.40;46.80;;;;;;;-3.99;87.16;100690.64;108672;281;154356;-70
2023/12/06 00:37:48;;;;;;;89.10;43.40;;;;;;;-3.97;87.13;100691.04;108797;282;37866;-71
2023/12/06 00:40:24;;;;;;;97.80;44.70;;;;;;;-3.93;87.27;100694.56;108634;281;154146;-71
2023/12/06 00:43:00;;;;;;;116.70;53.40;;;;;;;-3.91;87.14;100686.42;108800;281;38539;-70
2023/12/06 00:45:34;;;;;;;118.80;50.60;;;;;;;-3.88;87.17;100686.83;108646;281;154182;-68
2023/12/06 00:48:14;;;;;;;100.20;44.40;;;;;;;-3.88;87.04;100685.13;108795;281;38946;-72
2023/12/06 00:50:48;;;;;;;85.70;43.00;;;;;;;-3.87;87.05;100689.08;108663;281;156319;-72
2023/12/06 00:53:22;;;;;;;97.80;45.60;;;;;;;-3.86;87.01;100689.77;108820;281;38752;-70
2023/12/06 00:55:58;;;;;;;120.60;51.90;;;;;;;-3.84;87.08;100691.86;108773;282;39358;-70
2023/12/06 00:58:34;;;;;;;97.20;45.10;;;;;;;-3.80;87.25;100692.65;108690;281;154216;-69
2023/12/06 01:01:08;;;;;;;101.20;45.30;;;;;;;-3.79;87.02;100695.06;108804;281;39290;-70
2023/12/06 01:03:44;;;;;;;108.80;47.20;;;;;;;-3.81;87.01;100702.17;108689;281;154497;-71
2023/12/06 01:06:21;;;;;;;98.70;45.70;;;;;;;-3.80;87.03;100699.47;108762;281;39222;-71
2023/12/06 01:08:58;;;;;;;87.00;40.70;;;;;;;-3.78;87.01;100698.01;108683;281;154919;-70
2023/12/06 01:11:35;;;;;;;72.20;36.50;;;;;;;-3.74;87.16;100699.80;108791;281;38255;-70
2023/12/06 01:14:10;;;;;;;76.30;36.80;;;;;;;-3.77;87.07;100700.23;108812;282;38256;-73
2023/12/06 01:16:46;;;;;;;83.00;38.30;;;;;;;-3.77;87.11;100705.01;108621;281;153934;-71
2023/12/06 01:19:20;;;;;;;92.10;40.00;;;;;;;-3.78;87.11;100706.70;108808;282;38782;-72
2023/12/06 01:21:55;;;;;;;110.10;46.70;;;;;;;-3.76;87.25;100707.08;108653;281;155342;-70
2023/12/06 01:24:29;;;;;;;77.70;39.30;;;;;;;-3.68;87.30;100706.09;108799;281;38342;-71
2023/12/06 01:27:04;;;;;;;89.20;42.00;;;;;;;-3.61;87.36;100710.17;107905;281;921395;-71
2023/12/06 01:29:38;;;;;;;75.20;38.50;;;;;;;-3.58;87.09;100708.72;108817;281;38650;-71
2023/12/06 01:32:12;;;;;;;82.30;39.10;;;;;;;-3.58;87.07;100705.48;108648;282;176295;-71
2023/12/06 01:34:54;;;;;;;86.50;41.90;;;;;;;-3.55;87.24;100702.64;108639;281;154280;-72
2023/12/06 01:37:32;;;;;;;75.80;36.40;;;;;;;-3.53;87.06;100697.43;108794;282;39080;-71
2023/12/06 01:40:08;;;;;;;83.30;41.30;;;;;;;-3.56;86.92;100694.29;108659;281;155415;-71
2023/12/06 01:42:43;;;;;;;80.10;39.90;;;;;;;-3.56;87.04;100694.77;108749;281;38227;-70
2023/12/06 01:45:20;;;;;;;96.40;44.90;;;;;;;-3.54;87.19;100695.02;108669;281;154951;-68
2023/12/06 01:48:00;;;;;;;80.20;38.50;;;;;;;-3.53;87.11;100702.03;108825;281;38874;-72
2023/12/06 01:50:34;;;;;;;89.60;42.10;;;;;;;-3.52;87.26;100705.97;108759;282;38270;-72
2023/12/06 01:53:09;;;;;;;84.10;40.20;;;;;;;-3.52;87.18;100708.69;108630;281;154643;-69
2023/12/06 01:55:43;;;;;;;78.80;39.20;;;;;;;-3.49;87.31;100707.26;108784;282;38772;-69
2023/12/06 01:58:18;;;;;;;72.20;35.30;;;;;;;-3.41;87.42;100702.31;108654;281;154523;-72
2023/12/06 02:00:53;;;;;;;82.50;39.20;;;;;;;-3.33;87.41;100697.89;108787;281;38587;-72
2023/12/06 02:03:28;;;;;;;81.80;39.20;;;;;;;-3.31;87.25;100705.94;108636;281;155410;-72
2023/12/06 02:06:02;;;;;;;78.90;38.30;;;;;;;-3.29;87.29;100702.95;108799;281;38753;-73
2023/12/06 02:08:39;;;;;;;73.70;35.90;;;;;;;-3.28;87.00;100707.73;108776;282;38730;-72
2023/12/06 02:11:23;;;;;;;75.30;36.10;;;;;;;-3.32;86.84;100704.06;108698;282;38570;-72
2023/12/06 02:14:13;;;;;;;73.50;36.80;;;;;;;-3.31;87.05;100703.21;108844;281;38343;-72
2023/12/06 02:16:49;;;;;;;74.40;35.50;;;;;;;-3.27;87.21;100704.01;108656;281;153701;-71
2023/12/06 02:19:35;;;;;;;75.90;36.90;;;;;;;-3.26;87.13;100706.60;108814;282;39350;-70
2023/12/06 02:22:10;;;;;;;70.20;33.80;;;;;;;-3.32;87.00;100705.60;108686;281;154212;-70
2023/12/06 02:24:50;;;;;;;70.00;32.60;;;;;;;-3.34;87.16;100707.58;108800;281;39776;-71
2023/12/06 02:27:24;;;;;;;69.10;34.60;;;;;;;-3.38;87.10;100706.66;108670;281;154380;-69
2023/12/06 02:30:02;;;;;;;75.10;35.80;;;;;;;-3.37;87.49;100708.20;108750;281;39951;-72
2023/12/06 02:32:37;;;;;;;70.10;34.50;;;;;;;-3.39;87.40;100707.65;108830;282;38260;-70
2023/12/06 02:35:20;;;;;;;73.50;35.30;;;;;;;-3.40;87.49;100706.95;108737;282;38493;-69
2023/12/06 02:37:55;;;;;;;71.30;33.80;;;;;;;-3.39;87.56;100702.52;108655;282;176260;-71
2023/12/06 02:40:30;;;;;;;70.70;32.90;;;;;;;-3.39;87.70;100703.05;108643;281;154713;-73
2023/12/06 02:43:06;;;;;;;71.20;37.10;;;;;;;-3.39;87.72;100697.60;108833;281;39120;-72
2023/12/06 02:45:40;;;;;;;76.10;38.40;;;;;;;-3.35;87.79;100694.26;108664;281;154019;-70
2023/12/06 02:48:14;;;;;;;76.50;37.90;;;;;;;-3.33;87.72;100696.19;108820;281;39144;-70
2023/12/06 02:50:50;;;;;;;72.40;34.50;;;;;;;-3.32;87.70;100700.48;108782;282;38776;-69
2023/12/06 02:53:35;;;;;;;72.90;34.60;;;;;;;-3.31;87.65;100701.69;108768;282;39661;-69
2023/12/06 02:56:10;;;;;;;70.10;32.70;;;;;;;-3.33;87.62;100703.36;108746;282;38385;-69
2023/12/06 02:58:44;;;;;;;68.70;34.00;;;;;;;-3.29;87.70;100710.46;108684;281;154320;-70
2023/12/06 03:01:19;;;;;;;75.00;34.80;;;;;;;-3.28;87.53;100713.03;108793;281;38270;-73
2023/12/06 03:03:53;;;;;;;74.30;37.00;;;;;;;-3.25;87.70;100714.30;108680;281;154564;-69
2023/12/06 03:06:28;;;;;;;73.10;35.90;;;;;;;-3.23;87.65;100715.17;108681;282;38440;-70
2023/12/06 03:09:02;;;;;;;77.50;37.20;;;;;;;-3.20;87.60;100714.58;108637;281;155251;-71
2023/12/06 03:11:38;;;;;;;63.60;33.20;;;;;;;-3.18;87.61;100716.17;108782;281;39485;-71
2023/12/06 03:14:12;;;;;;;66.00;33.80;;;;;;;-3.15;87.45;100717.10;108809;282;38515;-69
2023/12/06 03:16:52;;;;;;;72.90;37.00;;;;;;;-3.14;87.42;100720.35;108619;281;154044;-70
2023/12/06 03:19:25;;;;;;;71.20;35.80;;;;;;;-3.12;87.51;100723.29;108779;282;39433;-71
2023/12/06 03:21:59;;;;;;;70.70;36.30;;;;;;;-3.12;87.46;100719.55;108664;281;155266;-70
2023/12/06 03:24:33;;;;;;;69.90;32.50;;;;;;;-3.14;87.26;100718.81;108774;281;37880;-71
2023/12/06 03:27:10;;;;;;;67.50;35.10;;;;;;;-3.14;87.29;100720.00;108627;281;154970;-71
2023/12/06 03:29:45;;;;;;;62.70;34.00;;;;;;;-3.14;87.14;100719.52;108682;281;173552;-72
2023/12/06 03:32:19;;;;;;;67.10;35.30;;;;;;;-3.13;87.19;100718.00;108782;282;38539;-73
2023/12/06 03:34:53;;;;;;;70.70;36.40;;;;;;;-3.10;87.38;100711.56;108659;281;155200;-72
2023/12/06 03:37:30;;;;;;;68.00;33.10;;;;;;;-3.12;87.15;100714.92;108821;282;38530;-72
2023/12/06 03:40:06;;;;;;;66.90;34.00;;;;;;;-3.13;87.12;100717.64;108656;281;154570;-72
2023/12/06 03:42:40;;;;;;;65.20;33.80;;;;;;;-3.13;87.16;100719.88;108826;281;38192;-71
2023/12/06 03:45:14;;;;;;;64.60;32.60;;;;;;;-3.12;87.10;100725.16;108685;281;154099;-72
2023/12/06 03:47:51;;;;;;;63.20;33.50;;;;;;;-3.13;87.13;100723.78;108809;281;38258;-69
2023/12/06 03:50:26;;;;;;;61.10;31.30;;;;;;;-3.14;86.98;100723.41;108649;282;176249;-68
2023/12/06 03:53:00;;;;;;;64.70;32.00;;;;;;;-3.16;87.01;100721.34;108604;281;155327;-69
2023/12/06 03:55:34;;;;;;;62.50;31.50;;;;;;;-3.12;86.95;100723.46;108824;282;38519;-68
2023/12/06 03:58:09;;;;;;;61.80;30.90;;;;;;;-3.10;87.01;100718.91;108682;281;154224;-71
2023/12/06 04:00:43;;;;;;;65.40;33.60;;;;;;;-3.13;86.76;100717.48;108805;281;38771;-70
2023/12/06 04:03:17;;;;;;;64.70;34.50;;;;;;;-3.17;86.77;100710.39;108700;281;155485;-71
2023/12/06 04:05:54;;;;;;;63.00;31.90;;;;;;;-3.18;86.85;100706.61;108752;281;38163;-72
2023/12/06 04:08:28;;;;;;;59.60;32.80;;;;;;;-3.14;87.03;100709.96;108817;282;39400;-72
2023/12/06 04:11:03;;;;;;;61.50;32.50;;;;;;;-3.10;86.96;100711.73;108647;281;154574;-72
2023/12/06 04:13:38;;;;;;;64.70;34.40;;;;;;;-3.14;86.81;100710.81;108804;282;38781;-71
2023/12/06 04:16:13;;;;;;;61.50;31.40;;;;;;;-3.13;86.87;100713.02;108644;281;154155;-71
2023/12/06 04:18:47;;;;;;;62.20;31.50;;;;;;;-3.17;86.79;100715.17;108844;281;39556;-72
2023/12/06 04:21:21;;;;;;;57.20;30.90;;;;;;;-3.20;86.54;100712.52;108653;281;154756;-71
2023/12/06 04:23:56;;;;;;;52.60;29.00;;;;;;;-3.20;86.64;100713.39;108775;281;38496;-72
2023/12/06 04:26:30;;;;;;;59.70;31.80;;;;;;;-3.20;86.57;100716.09;108767;282;38249;-71
2023/12/06 04:29:06;;;;;;;56.70;31.90;;;;;;;-3.21;86.61;100714.21;108723;281;154445;-66
2023/12/06 04:31:45;;;;;;;57.60;30.80;;;;;;;-3.22;86.53;100715.38;108791;282;39793;-66
2023/12/06 04:34:26;;;;;;;59.20;31.20;;;;;;;-3.25;86.38;100718.55;108620;281;155199;-68
2023/12/06 04:37:01;;;;;;;54.10;28.00;;;;;;;-3.28;86.43;100717.97;108778;281;39286;-66
2023/12/06 04:39:39;;;;;;;51.40;28.00;;;;;;;-3.27;86.54;100717.15;108636;281;155568;-66
2023/12/06 04:42:15;;;;;;;53.40;28.40;;;;;;;-3.24;86.52;100717.05;108136;281;919658;-69
2023/12/06 04:44:51;;;;;;;58.80;29.90;;;;;;;-3.24;86.43;100714.83;108821;282;39101;-67
2023/12/06 04:47:28;;;;;;;62.40;33.50;;;;;;;-3.23;86.45;100710.59;108726;282;38188;-66
2023/12/06 04:50:09;;;;;;;59.10;30.70;;;;;;;-3.24;86.49;100712.44;108801;282;38208;-66
2023/12/06 04:52:45;;;;;;;63.50;32.40;;;;;;;-3.24;86.43;100714.14;108575;282;155829;-71
2023/12/06 04:55:19;;;;;;;69.10;34.50;;;;;;;-3.24;86.29;100714.16;108766;282;39037;-71
2023/12/06 04:57:58;;;;;;;57.10;31.30;;;;;;;-3.21;86.35;100713.00;108660;282;154981;-68
2023/12/06 05:00:36;;;;;;;52.60;28.60;;;;;;;-3.23;86.10;100712.95;108762;282;39703;-65
2023/12/06 05:03:17;;;;;;;52.70;28.20;;;;;;;-3.27;86.12;100713.05;108636;282;154912;-68
2023/12/06 05:05:59;;;;;;;51.50;27.90;;;;;;;-3.31;86.08;100716.70;108747;282;38470;-68
2023/12/06 05:08:39;;;;;;;50.30;27.20;;;;;;;-3.32;86.10;100715.66;108794;282;38511;-70
2023/12/06 05:11:13;;;;;;;52.50;26.60;;;;;;;-3.31;86.10;100708.36;108078;282;670970;-69
2023/12/06 05:13:49;;;;;;;60.90;32.10;;;;;;;-3.29;86.01;100706.85;108785;282;40379;-71
2023/12/06 05:16:26;;;;;;;56.50;30.20;;;;;;;-3.31;86.07;100702.05;108572;282;153960;-70
2023/12/06 05:19:01;;;;;;;48.30;25.30;;;;;;;-3.33;86.04;100702.99;108774;282;38482;-70
2023/12/06 05:21:36;;;;;;;66.90;32.90;;;;;;;-3.39;85.99;100700.65;108618;282;154509;-69
2023/12/06 05:24:12;;;;;;;76.80;37.40;;;;;;;-3.40;86.13;100701.14;108681;282;38276;-71
2023/12/06 05:26:46;;;;;;;66.80;36.30;;;;;;;-3.37;86.23;100698.66;108768;282;39384;-69
2023/12/06 05:29:24;;;;;;;52.60;27.30;;;;;;;-3.37;86.15;100693.54;108733;282;38415;-71
2023/12/06 05:31:58;;;;;;;48.20;26.00;;;;;;;-3.40;86.08;100693.31;108743;282;39440;-72
2023/12/06 05:34:33;;;;;;;64.10;32.40;;;;;;;-3.42;86.14;100697.17;108022;281;918276;-71
2023/12/06 05:37:08;;;;;;;59.70;31.20;;;;;;;-3.42;86.22;100694.95;108821;281;38332;-69
2023/12/06 05:39:46;;;;;;;63.60;33.10;;;;;;;-3.40;86.31;100697.57;108699;281;155671;-68
2023/12/06 05:42:30;;;;;;;56.00;30.10;;;;;;;-3.40;86.29;100702.17;108709;282;39916;-69
2023/12/06 05:45:06;;;;;;;78.40;39.10;;;;;;;-3.40;86.46;100702.85;108628;281;154445;-69
2023/12/06 05:47:41;;;;;;;53.70;28.00;;;;;;;-3.39;86.53;100705.27;108773;280;39411;-69
2023/12/06 05:50:17;;;;;;;91.20;42.10;;;;;;;-3.38;86.37;100713.32;108803;280;40131;-69
2023/12/06 05:52:58;;;;;;;74.50;37.80;;;;;;;-3.34;86.41;100708.77;108542;280;154927;-69
2023/12/06 05:55:32;;;;;;;61.20;32.00;;;;;;;-3.31;86.44;100704.08;108683;282;38386;-72
2023/12/06 05:58:09;;;;;;;48.30;26.10;;;;;;;-3.29;86.35;100710.27;108567;282;154965;-66
2023/12/06 06:00:48;;;;;;;51.30;28.40;;;;;;;-3.31;86.18;100709.70;108686;282;39745;-68
2023/12/06 06:03:24;;;;;;;49.20;26.50;;;;;;;-3.31;86.24;100713.28;108622;281;154702;-69
2023/12/06 06:06:05;;;;;;;57.50;30.60;;;;;;;-3.37;86.18;100714.52;108806;281;39732;-69
2023/12/06 06:08:40;;;;;;;60.70;31.50;;;;;;;-3.34;86.33;100715.45;108806;281;38229;-69
2023/12/06 06:11:17;;;;;;;46.90;26.10;;;;;;;-3.30;86.33;100713.67;108577;281;154148;-67
2023/12/06 06:13:53;;;;;;;48.70;26.40;;;;;;;-3.29;86.24;100720.18;108767;281;40486;-69
2023/12/06 06:16:30;;;;;;;49.10;28.40;;;;;;;-3.26;86.44;100726.03;108641;281;154189;-70
2023/12/06 06:19:07;;;;;;;49.10;26.50;;;;;;;-3.23;86.49;100728.34;108695;281;38354;-70
2023/12/06 06:21:41;;;;;;;49.30;26.60;;;;;;;-3.24;86.29;100732.23;108672;281;154336;-71
2023/12/06 06:24:17;;;;;;;46.30;25.90;;;;;;;-3.23;86.34;100732.27;108821;281;38258;-69
2023/12/06 06:26:52;;;;;;;45.40;26.80;;;;;;;-3.19;86.23;100733.38;108774;281;39196;-71
2023/12/06 06:29:26;;;;;;;46.50;28.00;;;;;;;-3.17;86.18;100732.22;108713;282;38217;-71
2023/12/06 06:32:00;;;;;;;52.90;29.70;;;;;;;-3.17;86.22;100729.50;108772;282;38418;-68
2023/12/06 06:34:34;;;;;;;53.40;29.30;;;;;;;-3.16;86.34;100737.36;108571;282;155133;-69
2023/12/06 06:37:10;;;;;;;48.50;25.40;;;;;;;-3.13;86.48;100738.11;108792;282;38323;-68
2023/12/06 06:39:47;;;;;;;48.90;27.50;;;;;;;-3.10;86.33;100730.69;108632;282;155575;-67
2023/12/06 06:42:34;;;;;;;45.70;26.90;;;;;;;-3.06;86.34;100736.38;108726;282;38172;-69
2023/12/06 06:45:11;;;;;;;49.30;27.40;;;;;;;-3.07;86.22;100731.44;108614;282;154611;-68
2023/12/06 06:47:45;;;;;;;50.50;27.90;;;;;;;-3.06;86.25;100735.02;108738;282;39729;-70
2023/12/06 06:50:22;;;;;;;48.50;27.10;;;;;;;-3.06;86.21;100737.93;108791;282;38589;-68
2023/12/06 06:52:59;;;;;;;50.60;27.60;;;;;;;-3.01;86.45;100743.67;108618;282;155041;-70
2023/12/06 06:55:33;;;;;;;48.10;27.40;;;;;;;-2.94;86.53;100744.36;108778;282;39691;-70
2023/12/06 06:58:13;;;;;;;55.10;30.40;;;;;;;-2.90;86.43;100747.89;108673;282;153910;-69
2023/12/06 07:00:52;;;;;;;44.80;25.80;;;;;;;-2.88;86.25;100748.42;108704;282;39214;-69
2023/12/06 07:03:32;;;;;;;48.50;26.50;;;;;;;-2.90;86.08;100752.80;108640;282;156139;-68
2023/12/06 07:06:13;;;;;;;45.00;26.00;;;;;;;-2.87;86.29;100753.05;108613;282;38467;-67
2023/12/06 07:08:49;;;;;;;45.00;25.10;;;;;;;-2.80;86.25;100752.36;108791;282;38361;-70
2023/12/06 07:11:26;;;;;;;47.90;27.10;;;;;;;-2.78;85.82;100752.90;108771;280;38502;-70
2023/12/06 07:14:05;;;;;;;45.60;27.30;;;;;;;-2.77;85.84;100754.27;108803;280;38187;-71
2023/12/06 07:16:42;;;;;;;48.50;26.20;;;;;;;-2.78;85.73;100756.50;108571;280;154053;-72
2023/12/06 07:19:22;;;;;;;58.50;30.80;;;;;;;-2.78;85.72;100758.37;108808;282;40137;-69
2023/12/06 07:21:59;;;;;;;69.00;36.60;;;;;;;-2.76;85.73;100753.45;108617;282;154729;-69
2023/12/06 07:24:35;;;;;;;46.40;27.90;;;;;;;-2.69;85.91;100756.17;108792;282;39481;-70
2023/12/06 07:27:11;;;;;;;49.20;27.60;;;;;;;-2.64;85.78;100753.90;108688;281;154180;-71
2023/12/06 07:29:45;;;;;;;45.60;28.20;;;;;;;-2.60;85.46;100759.27;108764;281;38788;-70
2023/12/06 07:32:24;;;;;;;49.20;26.10;;;;;;;-2.60;85.19;100753.48;108818;281;38946;-68
2023/12/06 07:35:04;;;;;;;53.30;28.30;;;;;;;-2.61;85.18;100755.33;107928;281;921032;-69
2023/12/06 07:37:41;;;;;;;54.90;29.50;;;;;;;-2.58;85.02;100756.06;108802;282;38175;-69
2023/12/06 07:40:18;;;;;;;43.60;26.00;;;;;;;-2.52;85.21;100751.41;108575;282;154373;-71
2023/12/06 07:42:56;;;;;;;47.30;25.60;;;;;;;-2.49;84.80;100752.17;108808;282;39506;-69
2023/12/06 07:45:32;;;;;;;47.80;27.10;;;;;;;-2.46;84.91;100756.16;108662;281;154159;-72
2023/12/06 07:48:06;;;;;;;49.30;30.20;;;;;;;-2.41;84.99;100757.27;108791;281;38163;-69
2023/12/06 07:50:40;;;;;;;45.80;24.70;;;;;;;-2.39;84.99;100755.45;108802;281;38770;-71
2023/12/06 07:53:14;;;;;;;42.70;24.90;;;;;;;-2.35;84.61;100758.61;108627;281;154680;-71
2023/12/06 07:55:54;;;;;;;43.70;25.70;;;;;;;-2.30;84.37;100757.16;108845;282;38613;-69
2023/12/06 07:58:30;;;;;;;47.30;27.00;;;;;;;-2.26;84.53;100754.51;108587;282;154021;-71
2023/12/06 08:01:06;;;;;;;50.90;29.10;;;;;;;-2.20;84.71;100753.63;108093;282;919697;-72
2023/12/06 08:03:41;;;;;;;46.90;27.50;;;;;;;-2.17;84.47;100754.53;108654;281;156348;-71
2023/12/06 08:06:15;;;;;;;53.60;30.60;;;;;;;-2.15;84.56;100756.11;108775;281;38979;-68
2023/12/06 08:08:50;;;;;;;47.70;26.40;;;;;;;-2.12;84.55;100749.17;108873;281;38411;-70
2023/12/06 08:11:27;;;;;;;45.60;27.60;;;;;;;-2.10;83.76;100753.46;108613;282;38482;-71
2023/12/06 08:14:04;;;;;;;49.60;27.70;;;;;;;-2.07;84.13;100755.57;108814;282;37962;-68
2023/12/06 08:16:43;;;;;;;51.60;28.70;;;;;;;-1.98;84.15;100756.95;108676;281;155233;-70
2023/12/06 08:19:24;;;;;;;50.20;28.50;;;;;;;-1.94;83.85;100760.95;108817;281;39618;-68
2023/12/06 08:21:58;;;;;;;48.30;28.00;;;;;;;-1.95;83.43;100757.70;108655;281;154037;-69
2023/12/06 08:25:06;;;;;;;49.50;28.40;;;;;;;-1.99;83.29;100760.69;108833;281;38722;-69
2023/12/06 08:27:48;;;;;;;49.90;27.60;;;;;;;-1.95;83.09;100762.30;108681;281;154476;-71
2023/12/06 08:30:23;;;;;;;47.50;27.90;;;;;;;-1.93;83.30;100761.48;108786;281;39200;-70
2023/12/06 08:32:59;;;;;;;47.50;27.10;;;;;;;-1.90;82.82;100760.86;108837;281;38725;-70
2023/12/06 08:35:37;;;;;;;50.60;28.30;;;;;;;-1.92;82.69;100761.33;108749;281;39428;-70
2023/12/06 08:38:12;;;;;;;52.60;29.60;;;;;;;-1.94;82.69;100764.55;108734;281;37992;-69
2023/12/06 08:40:48;;;;;;;50.80;29.20;;;;;;;-1.95;82.94;100769.32;108581;281;155065;-68
2023/12/06 08:43:24;;;;;;;46.50;25.40;;;;;;;-1.91;83.20;100768.36;108730;282;38342;-72
2023/12/06 08:45:59;;;;;;;47.80;28.30;;;;;;;-1.87;82.48;100773.73;108661;282;155629;-72
2023/12/06 08:48:35;;;;;;;49.70;27.40;;;;;;;-1.87;82.27;100780.24;108755;282;39583;-70
2023/12/06 08:51:11;;;;;;;47.70;28.20;;;;;;;-1.86;82.34;100782.66;108552;282;175893;-69
2023/12/06 08:53:48;;;;;;;51.80;29.50;;;;;;;-1.85;82.01;100781.98;108719;282;39271;-73
2023/12/06 08:56:24;;;;;;;47.60;25.60;;;;;;;-1.88;81.99;100783.30;108730;282;38324;-70
2023/12/06 08:59:02;;;;;;;45.20;26.00;;;;;;;-1.91;81.96;100785.12;108614;282;154711;-69
2023/12/06 09:01:41;;;;;;;43.90;26.30;;;;;;;-1.90;81.83;100782.41;108789;282;38461;-70
2023/12/06 09:04:15;;;;;;;45.80;27.60;;;;;;;-1.88;81.53;100783.13;108639;282;154273;-71
2023/12/06 09:06:54;;;;;;;47.50;27.20;;;;;;;-1.84;81.91;100781.31;108748;282;39486;-70
2023/12/06 09:09:30;;;;;;;50.20;29.20;;;;;;;-1.86;81.31;100777.02;108675;282;154146;-71
2023/12/06 09:12:12;;;;;;;55.60;29.70;;;;;;;-1.85;81.72;100777.20;108755;282;38745;-70
2023/12/06 09:14:48;;;;;;;49.60;28.90;;;;;;;-1.86;81.24;100778.04;108806;282;38603;-71
2023/12/06 09:17:28;;;;;;;53.00;29.00;;;;;;;-1.91;81.31;100778.27;108589;282;154103;-73
2023/12/06 09:20:07;;;;;;;49.60;28.50;;;;;;;-1.92;81.05;100782.71;108806;282;38252;-72
2023/12/06 09:22:41;;;;;;;51.90;28.10;;;;;;;-1.95;81.12;100786.58;108497;282;154296;-70
2023/12/06 09:25:16;;;;;;;52.00;28.20;;;;;;;-1.96;81.19;100790.14;108761;282;38244;-69
2023/12/06 09:27:54;;;;;;;54.30;30.30;;;;;;;-1.98;80.98;100786.52;108654;282;154317;-71
2023/12/06 09:30:29;;;;;;;55.80;31.40;;;;;;;-2.04;80.88;100784.70;108759;282;38465;-74
2023/12/06 09:33:06;;;;;;;55.60;30.80;;;;;;;-2.07;81.15;100783.09;108711;282;153954;-72
2023/12/06 09:35:40;;;;;;;52.90;28.40;;;;;;;-2.14;80.86;100783.98;108719;282;38273;-70
2023/12/06 09:38:15;;;;;;;50.00;27.80;;;;;;;-2.19;81.01;100788.85;108816;282;38596;-69
2023/12/06 09:40:49;;;;;;;51.40;29.10;;;;;;;-2.17;81.27;100789.05;108591;282;155524;-67
2023/12/06 09:43:26;;;;;;;58.80;30.20;;;;;;;-2.09;81.82;100782.38;108809;282;39825;-71
2023/12/06 09:46:05;;;;;;;53.10;30.40;;;;;;;-2.01;81.85;100786.64;108594;282;154167;-70
2023/12/06 09:48:40;;;;;;;64.60;35.00;;;;;;;-1.96;81.79;100786.56;108699;282;38387;-71
2023/12/06 09:51:14;;;;;;;77.50;39.40;;;;;;;-2.00;81.26;100785.96;108647;282;155415;-73
2023/12/06 09:53:48;;;;;;;79.30;38.60;;;;;;;-2.02;81.31;100786.10;108726;282;38251;-71
2023/12/06 09:56:24;;;;;;;66.60;34.80;;;;;;;-2.02;81.15;100794.31;108772;282;38207;-72
2023/12/06 09:58:58;;;;;;;54.70;29.10;;;;;;;-2.05;80.68;100792.88;108697;281;154512;-70
2023/12/06 10:01:35;;;;;;;55.60;31.00;;;;;;;-2.11;80.50;100791.90;108764;281;38306;-70
2023/12/06 10:04:13;;;;;;;55.00;30.70;;;;;;;-2.18;80.54;100791.08;108663;281;155656;-70
2023/12/06 10:06:48;;;;;;;59.30;32.90;;;;;;;-2.21;80.50;100785.71;108773;281;40042;-69
2023/12/06 10:09:25;;;;;;;60.20;33.70;;;;;;;-2.28;80.52;100785.40;108669;281;154235;-71
2023/12/06 10:12:11;;;;;;;54.00;29.10;;;;;;;-2.33;80.79;100783.95;108809;281;38828;-71
2023/12/06 10:14:51;;;;;;;54.80;29.90;;;;;;;-2.32;80.75;100784.48;108794;281;38789;-69
2023/12/06 10:17:31;;;;;;;52.10;28.00;;;;;;;-2.29;80.52;100785.55;108652;281;155562;-70
2023/12/06 10:20:06;;;;;;;57.50;31.50;;;;;;;-2.29;80.53;100791.37;108798;281;38451;-67
2023/12/06 10:22:47;;;;;;;56.20;31.60;;;;;;;-2.27;80.93;100789.34;108653;281;155077;-70
2023/12/06 10:25:21;;;;;;;53.70;30.50;;;;;;;-2.24;80.82;100789.92;108846;281;39072;-68
2023/12/06 10:28:12;;;;;;;52.80;29.20;;;;;;;-2.26;80.50;100786.98;108687;281;154195;-70
2023/12/06 10:30:48;;;;;;;56.00;29.40;;;;;;;-2.29;80.52;100782.98;108676;281;176218;-70
2023/12/06 10:33:26;;;;;;;53.30;28.20;;;;;;;-2.32;80.35;100776.45;108704;281;156002;-68
2023/12/06 10:36:00;;;;;;;49.80;28.10;;;;;;;-2.28;80.57;100776.52;108798;281;38534;-67
2023/12/06 10:38:37;;;;;;;49.70;26.70;;;;;;;-2.27;80.02;100769.38;108791;281;38783;-67
2023/12/06 10:41:12;;;;;;;52.70;27.10;;;;;;;-2.32;79.70;100774.73;108665;281;154064;-67
2023/12/06 10:43:48;;;;;;;52.30;28.60;;;;;;;-2.31;80.33;100771.16;108767;281;38166;-69
2023/12/06 10:46:23;;;;;;;50.40;28.40;;;;;;;-2.28;80.27;100773.09;108706;281;154796;-70
2023/12/06 10:48:58;;;;;;;48.40;26.70;;;;;;;-2.30;79.95;100771.52;108797;281;38784;-69
2023/12/06 10:51:33;;;;;;;51.60;27.20;;;;;;;-2.32;80.01;100775.23;108611;281;155004;-68
2023/12/06 10:54:11;;;;;;;46.50;26.70;;;;;;;-2.30;79.88;100770.49;108845;277;38468;-70
2023/12/06 10:56:45;;;;;;;51.00;29.30;;;;;;;-2.29;79.87;100770.00;108743;281;41503;-71
2023/12/06 10:59:20;;;;;;;54.90;28.60;;;;;;;-2.32;79.67;100772.33;108017;281;916899;-68
2023/12/06 11:01:55;;;;;;;50.80;28.90;;;;;;;-2.37;79.67;100768.13;108798;281;38170;-70
2023/12/06 11:04:31;;;;;;;53.90;29.10;;;;;;;-2.37;80.18;100765.40;108601;281;176182;-67
2023/12/06 11:07:14;;;;;;;50.70;25.50;;;;;;;-2.30;80.32;100763.16;108824;281;38541;-67
2023/12/06 11:09:54;;;;;;;48.30;27.10;;;;;;;-2.24;79.98;100765.84;108662;279;156292;-68
2023/12/06 11:12:38;;;;;;;53.20;27.90;;;;;;;-2.18;80.08;100759.62;108766;281;40396;-68
2023/12/06 11:15:22;;;;;;;47.70;26.10;;;;;;;-2.16;79.58;100758.13;108634;281;155214;-70
2023/12/06 11:18:04;;;;;;;52.30;28.30;;;;;;;-2.21;79.45;100753.41;108760;281;38478;-71
2023/12/06 11:20:44;;;;;;;54.20;30.90;;;;;;;-2.22;79.81;100752.38;108783;281;39191;-70
2023/12/06 11:23:21;;;;;;;57.30;30.20;;;;;;;-2.19;79.99;100757.56;108606;281;155223;-73
2023/12/06 11:25:56;;;;;;;48.40;26.10;;;;;;;-2.15;80.08;100758.67;108781;281;38642;-70
2023/12/06 11:28:40;;;;;;;46.40;25.80;;;;;;;-2.10;79.87;100749.20;108666;281;154359;-71
2023/12/06 11:31:18;;;;;;;51.50;29.00;;;;;;;-2.08;79.52;100750.25;108746;281;41605;-72
2023/12/06 11:34:05;;;;;;;50.70;28.50;;;;;;;-2.08;79.72;100748.88;108566;282;154195;-67
2023/12/06 11:36:41;;;;;;;51.40;29.60;;;;;;;-2.01;80.24;100747.48;108696;282;38795;-70
2023/12/06 11:39:22;;;;;;;53.90;28.40;;;;;;;-1.99;79.79;100747.17;108683;282;154266;-73
2023/12/06 11:41:58;;;;;;;51.10;26.80;;;;;;;-2.04;79.63;100745.04;108766;282;38711;-71
2023/12/06 11:44:36;;;;;;;46.80;26.40;;;;;;;-2.03;79.51;100741.10;108845;282;38479;-68
2023/12/06 11:47:13;;;;;;;50.70;28.00;;;;;;;-2.01;79.39;100743.73;108626;281;155850;-68